createdAt,value
2023-12-08T00:00:42.539Z,21.16
2023-12-08T00:03:12.605Z,21.15
2023-12-08T00:05:42.465Z,21.16
2023-12-08T00:08:13.049Z,21.13
2023-12-08T00:10:44.042Z,21.10
2023-12-08T00:13:16.149Z,21.06
2023-12-08T00:15:46.841Z,21.07
2023-12-08T00:18:16.855Z,21.03
2023-12-08T00:20:47.504Z,21.05
2023-12-08T00:23:18.315Z,21.03
2023-12-08T00:25:48.520Z,20.99
2023-12-08T00:28:18.333Z,20.95
2023-12-08T00:30:48.157Z,20.99
2023-12-08T00:33:19.133Z,21.00
2023-12-08T00:35:50.493Z,20.98
2023-12-08T00:38:24.182Z,20.95
2023-12-08T00:40:54.728Z,20.94
2023-12-08T00:43:24.556Z,20.94
2023-12-08T00:45:54.682Z,20.99
2023-12-08T00:48:24.966Z,21.03
2023-12-08T00:50:55.245Z,21.09
2023-12-08T00:53:25.091Z,21.10
2023-12-08T00:55:54.889Z,21.10
2023-12-08T00:58:24.772Z,21.13
2023-12-08T01:00:54.606Z,21.18
2023-12-08T01:03:24.966Z,21.18
2023-12-08T01:05:55.207Z,21.20
2023-12-08T01:08:27.945Z,21.20
2023-12-08T01:10:58.183Z,21.20
2023-12-08T01:13:28.696Z,21.20
2023-12-08T01:15:58.566Z,21.26
2023-12-08T01:18:28.516Z,21.30
2023-12-08T01:20:58.629Z,21.27
2023-12-08T01:23:28.725Z,21.27
2023-12-08T01:25:59.617Z,21.29
2023-12-08T01:28:29.891Z,21.30
2023-12-08T01:30:59.684Z,21.26
2023-12-08T01:33:29.637Z,21.30
2023-12-08T01:36:38.297Z,21.29
2023-12-08T01:38:54.227Z,21.30
2023-12-08T01:41:24.419Z,21.27
2023-12-08T01:43:54.314Z,21.29
2023-12-08T01:46:24.447Z,21.32
2023-12-08T01:48:54.541Z,21.34
2023-12-08T01:51:25.169Z,21.39
2023-12-08T01:53:55.385Z,21.40
2023-12-08T01:56:26.455Z,21.40
2023-12-08T01:58:57.011Z,21.43
2023-12-08T02:01:28.088Z,21.42
2023-12-08T02:04:00.960Z,21.37
2023-12-08T02:06:31.815Z,21.39
2023-12-08T02:09:01.877Z,21.37
2023-12-08T02:11:32.176Z,21.33
2023-12-08T02:14:02.513Z,21.33
2023-12-08T02:16:49.620Z,21.32
2023-12-08T02:19:20.628Z,21.27
2023-12-08T02:21:50.917Z,21.25
2023-12-08T02:24:21.890Z,21.16
2023-12-08T02:26:53.077Z,21.09
2023-12-08T02:29:23.385Z,21.06
2023-12-08T02:32:10.061Z,21.06
2023-12-08T02:34:42.942Z,20.99
2023-12-08T02:37:17.279Z,20.95
2023-12-08T02:39:50.750Z,20.94
2023-12-08T02:42:21.755Z,20.89
2023-12-08T02:44:51.906Z,20.85
2023-12-08T02:47:23.626Z,20.84
2023-12-08T02:49:53.718Z,20.76
2023-12-08T02:52:24.694Z,20.79
2023-12-08T02:54:54.872Z,20.79
2023-12-08T02:57:25.489Z,20.75
2023-12-08T02:59:55.646Z,20.69
2023-12-08T03:02:25.584Z,20.68
2023-12-08T03:04:55.492Z,20.65
2023-12-08T03:07:25.914Z,20.67
2023-12-08T03:09:57.133Z,20.64
2023-12-08T03:12:27.056Z,20.61
2023-12-08T03:14:57.386Z,20.61
2023-12-08T03:17:27.564Z,20.57
2023-12-08T03:19:58.179Z,20.51
2023-12-08T03:22:28.117Z,20.41
2023-12-08T03:24:58.462Z,20.40
2023-12-08T03:27:28.768Z,20.40
2023-12-08T03:29:59.610Z,20.35
2023-12-08T03:32:29.547Z,20.33
2023-12-08T03:35:01.591Z,20.27
2023-12-08T03:37:31.579Z,20.30
2023-12-08T03:40:01.322Z,20.33
2023-12-08T03:42:37.178Z,20.28
2023-12-08T03:45:07.870Z,20.24
2023-12-08T03:47:38.365Z,20.26
2023-12-08T03:50:09.078Z,20.27
2023-12-08T03:52:38.918Z,20.26
2023-12-08T03:55:09.024Z,20.24
2023-12-08T03:57:39.155Z,20.27
2023-12-08T04:00:10.357Z,20.30
2023-12-08T04:02:40.756Z,20.31
2023-12-08T04:05:11.070Z,20.35
2023-12-08T04:07:40.869Z,20.33
2023-12-08T04:10:11.043Z,20.31
2023-12-08T04:12:40.907Z,20.27
2023-12-08T04:15:11.415Z,20.27
2023-12-08T04:17:42.499Z,20.31
2023-12-08T04:20:12.916Z,20.31
2023-12-08T04:22:42.793Z,20.28
2023-12-08T04:25:14.936Z,20.28
2023-12-08T04:27:45.344Z,20.27
2023-12-08T04:30:15.972Z,20.34
2023-12-08T04:32:46.822Z,20.35
2023-12-08T04:35:16.986Z,20.33
2023-12-08T04:37:47.262Z,20.31
2023-12-08T04:40:17.453Z,20.23
2023-12-08T04:42:47.647Z,20.27
2023-12-08T04:45:18.087Z,20.30
2023-12-08T04:47:48.137Z,20.28
2023-12-08T04:50:18.569Z,20.24
2023-12-08T04:52:49.476Z,20.23
2023-12-08T04:55:21.173Z,20.20
2023-12-08T04:57:51.153Z,20.21
2023-12-08T05:00:21.368Z,20.21
2023-12-08T05:02:52.321Z,20.20
2023-12-08T05:05:22.932Z,20.16
2023-12-08T05:07:53.012Z,20.16
2023-12-08T05:10:22.827Z,20.16
2023-12-08T05:12:53.479Z,20.13
2023-12-08T05:15:23.831Z,20.01
2023-12-08T05:17:55.086Z,19.98
2023-12-08T05:20:25.476Z,19.97
2023-12-08T05:22:55.212Z,20.03
2023-12-08T05:25:25.219Z,20.00
2023-12-08T05:27:55.072Z,19.94
2023-12-08T05:30:25.105Z,19.93
2023-12-08T05:32:55.105Z,19.92
2023-12-08T05:35:26.026Z,19.87
2023-12-08T05:37:55.953Z,19.89
2023-12-08T05:40:26.326Z,19.80
2023-12-08T05:42:56.692Z,19.76
2023-12-08T05:45:27.180Z,19.82
2023-12-08T05:47:58.339Z,19.77
2023-12-08T05:50:28.974Z,19.72
2023-12-08T05:52:59.375Z,19.73
2023-12-08T05:55:29.566Z,19.77
2023-12-08T05:57:59.477Z,19.76
2023-12-08T06:00:29.376Z,19.80
2023-12-08T06:02:59.524Z,19.70
2023-12-08T06:05:29.679Z,19.70
2023-12-08T06:07:59.787Z,19.70
2023-12-08T06:10:29.778Z,19.67
2023-12-08T06:12:59.647Z,19.66
2023-12-08T06:15:29.488Z,19.65
2023-12-08T06:17:59.376Z,19.56
2023-12-08T06:20:29.416Z,19.56
2023-12-08T06:22:59.217Z,19.55
2023-12-08T06:25:29.618Z,19.52
2023-12-08T06:27:59.382Z,19.49
2023-12-08T06:30:29.233Z,19.38
2023-12-08T06:32:59.115Z,19.38
2023-12-08T06:35:29.467Z,19.34
2023-12-08T06:38:00.102Z,19.32
2023-12-08T06:40:30.072Z,19.28
2023-12-08T06:42:59.939Z,19.34
2023-12-08T06:45:30.352Z,19.36
2023-12-08T06:48:00.795Z,19.41
2023-12-08T06:50:32.842Z,19.48
2023-12-08T06:53:03.977Z,19.46
2023-12-08T06:55:34.530Z,19.52
2023-12-08T06:58:04.657Z,19.51
2023-12-08T07:00:34.486Z,19.52
2023-12-08T07:03:04.740Z,19.52
2023-12-08T07:05:36.614Z,19.58
2023-12-08T07:08:07.254Z,19.59
2023-12-08T07:10:37.097Z,19.49
2023-12-08T07:13:07.107Z,19.45
2023-12-08T07:15:36.890Z,19.48
2023-12-08T07:18:07.210Z,19.55
2023-12-08T07:20:37.633Z,19.54
2023-12-08T07:23:07.724Z,19.49
2023-12-08T07:25:37.511Z,19.54
2023-12-08T07:28:07.324Z,19.54
2023-12-08T07:30:37.212Z,19.55
2023-12-08T07:33:07.547Z,19.54
2023-12-08T07:35:37.682Z,19.51
2023-12-08T07:38:07.499Z,19.54
2023-12-08T07:40:37.385Z,19.49
2023-12-08T07:43:07.246Z,19.45
2023-12-08T07:45:37.189Z,19.46
2023-12-08T07:48:08.132Z,19.45
2023-12-08T07:50:38.581Z,19.48
2023-12-08T07:53:08.995Z,19.52
2023-12-08T07:55:41.643Z,19.51
2023-12-08T07:58:11.356Z,19.62
2023-12-08T08:00:41.327Z,19.61
2023-12-08T08:03:11.383Z,19.66
2023-12-08T08:05:41.292Z,19.69
2023-12-08T08:08:12.825Z,19.69
2023-12-08T08:10:42.923Z,19.72
2023-12-08T08:13:13.088Z,19.89
2023-12-08T08:15:43.538Z,20.03
2023-12-08T08:18:13.500Z,20.16
2023-12-08T08:20:43.404Z,20.13
2023-12-08T08:23:13.216Z,20.14
2023-12-08T08:25:43.008Z,20.06
2023-12-08T08:28:13.106Z,20.10
2023-12-08T08:30:46.541Z,20.10
2023-12-08T08:33:16.984Z,20.09
2023-12-08T08:35:47.102Z,20.18
2023-12-08T08:38:17.458Z,20.26
2023-12-08T08:40:47.346Z,20.30
2023-12-08T08:43:17.398Z,20.38
2023-12-08T08:45:47.386Z,20.44
2023-12-08T08:48:20.097Z,20.41
2023-12-08T08:50:50.992Z,20.41
2023-12-08T08:53:20.976Z,20.47
2023-12-08T08:55:51.048Z,20.57
2023-12-08T08:58:20.835Z,20.52
2023-12-08T09:00:51.171Z,20.52
2023-12-08T09:03:20.996Z,20.51
2023-12-08T09:05:51.050Z,20.52
2023-12-08T09:08:21.025Z,20.52
2023-12-08T09:10:53.614Z,20.51
2023-12-08T09:13:23.725Z,20.57
2023-12-08T09:15:54.220Z,20.58
2023-12-08T09:18:25.701Z,20.71
2023-12-08T09:20:57.797Z,20.76
2023-12-08T09:23:28.024Z,20.75
2023-12-08T09:25:57.828Z,20.76
2023-12-08T09:28:28.250Z,20.78
2023-12-08T09:30:58.334Z,20.78
2023-12-08T09:33:31.417Z,20.79
2023-12-08T09:36:02.002Z,20.75
2023-12-08T09:38:34.537Z,20.74
2023-12-08T09:41:09.868Z,20.82
2023-12-08T09:44:28.088Z,20.96
2023-12-08T09:47:01.028Z,21.03
2023-12-08T09:49:43.176Z,21.07
2023-12-08T09:52:17.340Z,21.07
2023-12-08T09:54:47.917Z,21.09
2023-12-08T09:57:20.027Z,21.10
2023-12-08T09:59:50.580Z,21.13
2023-12-08T10:02:20.735Z,21.16
2023-12-08T10:04:52.293Z,21.25
2023-12-08T10:07:24.798Z,21.26
2023-12-08T10:09:55.565Z,21.30
2023-12-08T10:12:27.818Z,21.36
2023-12-08T10:15:01.240Z,21.39
2023-12-08T10:17:31.642Z,21.50
2023-12-08T10:20:15.264Z,21.54
2023-12-08T10:22:50.271Z,21.57
2023-12-08T10:25:22.858Z,21.57
2023-12-08T10:27:56.174Z,21.64
2023-12-08T10:30:31.211Z,21.70
2023-12-08T10:33:02.315Z,21.95
2023-12-08T10:35:32.438Z,22.35
2023-12-08T10:38:04.425Z,22.84
2023-12-08T10:40:35.041Z,22.89
2023-12-08T10:43:07.650Z,22.62
2023-12-08T10:45:38.150Z,22.79
2023-12-08T10:48:09.003Z,23.11
2023-12-08T10:50:41.163Z,23.24
2023-12-08T10:53:12.847Z,23.38
2023-12-08T10:55:42.886Z,23.55
2023-12-08T10:58:17.485Z,24.10
2023-12-08T11:00:48.989Z,24.65
2023-12-08T11:03:23.909Z,25.43
2023-12-08T11:06:11.800Z,26.22
2023-12-08T11:08:47.930Z,25.60
2023-12-08T11:11:23.196Z,24.74
2023-12-08T11:14:03.508Z,24.44
2023-12-08T11:16:42.175Z,24.13
2023-12-08T11:19:14.134Z,23.81
2023-12-08T11:21:46.480Z,23.76
2023-12-08T11:24:17.179Z,23.85
2023-12-08T11:27:15.196Z,23.57
2023-12-08T11:30:10.798Z,23.61
2023-12-08T11:32:52.695Z,23.51
2023-12-08T11:35:23.649Z,23.73
2023-12-08T11:37:53.905Z,23.79
2023-12-08T11:40:25.834Z,23.90
2023-12-08T11:42:58.403Z,24.33
2023-12-08T11:45:29.416Z,25.08
2023-12-08T11:48:00.493Z,25.94
2023-12-08T11:50:33.509Z,26.31
2023-12-08T11:53:07.571Z,25.67
2023-12-08T11:55:38.767Z,24.98
2023-12-08T11:58:11.678Z,24.60
2023-12-08T12:00:44.739Z,24.44
2023-12-08T12:03:15.436Z,24.43
2023-12-08T12:05:45.801Z,24.26
2023-12-08T12:08:17.451Z,24.53
2023-12-08T12:10:51.886Z,24.70
2023-12-08T12:13:25.626Z,24.23
2023-12-08T12:15:58.174Z,23.88
2023-12-08T12:18:30.663Z,23.89
2023-12-08T12:21:04.747Z,23.95
2023-12-08T12:23:35.574Z,24.02
2023-12-08T12:26:14.782Z,24.27
2023-12-08T12:28:46.635Z,24.23
2023-12-08T12:31:18.011Z,24.16
2023-12-08T12:33:50.210Z,24.19
2023-12-08T12:36:21.000Z,24.63
2023-12-08T12:38:52.344Z,24.81
2023-12-08T12:41:27.604Z,25.09
2023-12-08T12:44:04.135Z,26.76
2023-12-08T12:46:35.326Z,28.52
2023-12-08T12:49:05.474Z,28.35
2023-12-08T12:51:41.270Z,27.67
2023-12-08T12:54:12.249Z,28.43
2023-12-08T12:56:53.476Z,27.44
2023-12-08T12:59:23.496Z,26.37
2023-12-08T13:01:53.354Z,25.46
2023-12-08T13:04:30.811Z,25.50
2023-12-08T13:07:02.275Z,25.98
2023-12-08T13:09:33.703Z,26.44
2023-12-08T13:12:04.134Z,26.79
2023-12-08T13:14:34.222Z,26.35
2023-12-08T13:17:07.057Z,26.95
2023-12-08T13:19:37.296Z,26.93
2023-12-08T13:22:07.807Z,25.88
2023-12-08T13:24:38.406Z,25.73
2023-12-08T13:27:08.633Z,27.62
2023-12-08T13:29:39.234Z,29.56
2023-12-08T13:32:09.556Z,29.29
2023-12-08T13:34:39.806Z,30.18
2023-12-08T13:37:10.005Z,30.12
2023-12-08T13:39:39.854Z,30.41
2023-12-08T13:42:09.865Z,30.14
2023-12-08T13:44:42.161Z,30.16
2023-12-08T13:47:14.092Z,29.41
2023-12-08T13:49:49.485Z,28.33
2023-12-08T13:52:20.183Z,27.40
2023-12-08T13:54:50.293Z,26.79
2023-12-08T13:57:20.394Z,26.58
2023-12-08T13:59:50.531Z,26.34
2023-12-08T14:02:20.533Z,26.35
2023-12-08T14:04:51.467Z,27.55
2023-12-08T14:07:21.832Z,28.54
2023-12-08T14:09:52.438Z,29.29
2023-12-08T14:12:22.813Z,29.77
2023-12-08T14:14:52.934Z,28.91
2023-12-08T14:17:23.271Z,26.80
2023-12-08T14:19:54.122Z,25.98
2023-12-08T14:22:24.593Z,26.58
2023-12-08T14:24:56.393Z,27.06
2023-12-08T14:27:27.754Z,27.04
2023-12-08T14:29:58.111Z,27.36
2023-12-08T14:32:28.314Z,28.50
2023-12-08T14:35:04.481Z,28.42
2023-12-08T14:37:42.311Z,27.48
2023-12-08T14:40:13.851Z,27.85
2023-12-08T14:42:45.929Z,27.88
2023-12-08T14:45:16.948Z,28.87
2023-12-08T14:47:47.892Z,28.78
2023-12-08T14:50:17.931Z,29.53
2023-12-08T14:52:47.964Z,28.46
2023-12-08T14:55:20.497Z,28.08
2023-12-08T14:57:51.766Z,26.80
2023-12-08T15:00:22.036Z,26.02
2023-12-08T15:02:52.892Z,26.08
2023-12-08T15:05:22.963Z,26.86
2023-12-08T15:07:52.914Z,26.37
2023-12-08T15:10:22.754Z,26.73
2023-12-08T15:13:06.231Z,27.44
2023-12-08T15:15:45.567Z,26.63
2023-12-08T15:18:18.937Z,26.20
2023-12-08T15:20:56.854Z,27.16
2023-12-08T15:23:41.971Z,27.23
2023-12-08T15:26:12.375Z,27.94
2023-12-08T15:28:42.442Z,26.44
2023-12-08T15:31:15.121Z,25.76
2023-12-08T15:33:45.418Z,27.38
2023-12-08T15:36:16.398Z,27.78
2023-12-08T15:38:48.919Z,28.63
2023-12-08T15:41:19.768Z,29.00
2023-12-08T15:43:49.939Z,31.08
2023-12-08T15:46:19.963Z,29.16
2023-12-08T15:48:52.238Z,27.58
2023-12-08T15:51:22.666Z,27.02
2023-12-08T15:53:52.599Z,27.23
2023-12-08T15:56:23.006Z,26.90
2023-12-08T15:58:53.601Z,27.33
2023-12-08T16:01:25.288Z,28.23
2023-12-08T16:03:55.623Z,28.26
2023-12-08T16:06:25.893Z,27.59
2023-12-08T16:08:56.746Z,29.43
2023-12-08T16:11:31.778Z,28.53
2023-12-08T16:14:05.089Z,27.68
2023-12-08T16:16:35.567Z,27.20
2023-12-08T16:19:07.144Z,28.33
2023-12-08T16:21:37.224Z,29.86
2023-12-08T16:24:08.934Z,30.48
2023-12-08T16:26:39.071Z,29.35
2023-12-08T16:29:10.552Z,27.92
2023-12-08T16:31:40.549Z,28.70
2023-12-08T16:34:10.524Z,29.42
2023-12-08T16:36:40.999Z,29.59
2023-12-08T16:39:16.718Z,29.92
2023-12-08T16:41:50.764Z,29.29
2023-12-08T16:44:21.482Z,30.30
2023-12-08T16:46:52.278Z,30.13
2023-12-08T16:49:22.599Z,28.47
2023-12-08T16:51:52.914Z,29.74
2023-12-08T16:54:23.518Z,30.09
2023-12-08T16:56:53.446Z,29.99
2023-12-08T16:59:23.611Z,29.18
2023-12-08T17:01:53.435Z,29.34
2023-12-08T17:04:23.411Z,29.51
2023-12-08T17:06:57.838Z,30.58
2023-12-08T17:09:31.630Z,30.96
2023-12-08T17:12:02.047Z,30.47
2023-12-08T17:14:32.092Z,29.96
2023-12-08T17:17:01.911Z,29.32
2023-12-08T17:19:31.788Z,28.31
2023-12-08T17:22:01.636Z,27.38
2023-12-08T17:24:31.433Z,28.20
2023-12-08T17:27:01.463Z,27.75
2023-12-08T17:29:31.266Z,28.83
2023-12-08T17:32:01.145Z,29.00
2023-12-08T17:34:36.700Z,28.25
2023-12-08T17:37:07.736Z,28.26
2023-12-08T17:39:37.838Z,28.49
2023-12-08T17:42:08.178Z,28.67
2023-12-08T17:44:37.989Z,28.13
2023-12-08T17:47:09.294Z,27.68
2023-12-08T17:49:43.139Z,27.92
2023-12-08T17:52:13.976Z,28.19
2023-12-08T17:54:45.240Z,28.17
2023-12-08T17:57:16.032Z,27.80
2023-12-08T17:59:46.313Z,27.88
2023-12-08T18:02:16.486Z,27.82
2023-12-08T18:04:46.427Z,28.25
2023-12-08T18:07:16.929Z,28.23
2023-12-08T18:09:46.993Z,28.29
2023-12-08T18:12:21.941Z,28.43
2023-12-08T18:14:52.730Z,28.37
2023-12-08T18:17:22.940Z,28.61
2023-12-08T18:19:52.795Z,29.03
2023-12-08T18:22:24.653Z,28.78
2023-12-08T18:24:57.039Z,29.03
2023-12-08T18:27:39.553Z,28.74
2023-12-08T18:30:18.987Z,29.21
2023-12-08T18:32:49.044Z,28.53
2023-12-08T18:35:19.219Z,27.92
2023-12-08T18:37:49.577Z,27.85
2023-12-08T18:40:19.409Z,28.06
2023-12-08T18:42:49.208Z,28.12
2023-12-08T18:45:19.069Z,28.04
2023-12-08T18:47:51.737Z,27.67
2023-12-08T18:50:21.972Z,27.84
2023-12-08T18:52:53.075Z,27.94
2023-12-08T18:55:24.361Z,27.86
2023-12-08T18:57:54.691Z,28.17
2023-12-08T19:00:24.803Z,28.36
2023-12-08T19:02:54.656Z,28.70
2023-12-08T19:05:24.663Z,27.96
2023-12-08T19:07:55.387Z,27.74
2023-12-08T19:10:25.428Z,27.95
2023-12-08T19:12:56.242Z,27.77
2023-12-08T19:15:28.238Z,28.02
2023-12-08T19:17:58.226Z,28.12
2023-12-08T19:20:31.096Z,27.86
2023-12-08T19:23:02.947Z,27.72
2023-12-08T19:25:32.981Z,27.62
2023-12-08T19:28:02.797Z,27.74
2023-12-08T19:30:32.894Z,27.46
2023-12-08T19:33:03.000Z,27.62
2023-12-08T19:35:33.238Z,27.55
2023-12-08T19:38:03.325Z,27.55
2023-12-08T19:40:33.140Z,27.20
2023-12-08T19:43:03.640Z,27.34
2023-12-08T19:45:33.409Z,27.44
2023-12-08T19:48:03.976Z,27.54
2023-12-08T19:50:35.317Z,27.37
2023-12-08T19:53:09.674Z,27.20
2023-12-08T19:55:39.644Z,27.16
2023-12-08T19:58:11.256Z,27.20
2023-12-08T20:00:41.436Z,27.08
2023-12-08T20:03:12.294Z,27.14
2023-12-08T20:05:42.477Z,27.16
2023-12-08T20:08:13.304Z,27.03
2023-12-08T20:10:43.559Z,26.99
2023-12-08T20:13:13.731Z,26.87
2023-12-08T20:15:45.206Z,27.08
2023-12-08T20:18:15.852Z,27.00
2023-12-08T20:20:47.217Z,27.00
2023-12-08T20:23:18.708Z,26.93
2023-12-08T20:25:49.704Z,26.99
2023-12-08T20:28:20.876Z,27.04
2023-12-08T20:30:51.117Z,27.07
2023-12-08T20:33:21.565Z,27.07
2023-12-08T20:35:52.584Z,26.83
2023-12-08T20:38:22.806Z,26.96
2023-12-08T20:40:52.853Z,26.71
2023-12-08T20:43:24.755Z,26.51
2023-12-08T20:45:54.373Z,26.42
2023-12-08T20:48:24.261Z,26.11
2023-12-08T20:50:54.565Z,25.94
2023-12-08T20:53:24.976Z,25.96
2023-12-08T20:55:55.651Z,26.05
2023-12-08T20:58:25.904Z,26.20
2023-12-08T21:00:56.191Z,25.98
2023-12-08T21:03:26.124Z,25.87
2023-12-08T21:05:57.856Z,25.80
2023-12-08T21:08:28.403Z,25.84
2023-12-08T21:11:08.099Z,25.79
2023-12-08T21:13:38.331Z,25.76
2023-12-08T21:16:08.477Z,25.51
2023-12-08T21:18:38.818Z,25.35
2023-12-08T21:21:09.353Z,25.19
2023-12-08T21:23:40.678Z,25.11
2023-12-08T21:26:11.466Z,25.01
2023-12-08T21:28:41.478Z,24.95
2023-12-08T21:31:11.714Z,24.92
2023-12-08T21:33:41.807Z,24.95
2023-12-08T21:36:11.684Z,24.96
2023-12-08T21:38:42.643Z,24.96
2023-12-08T21:41:12.616Z,25.02
2023-12-08T21:43:43.542Z,25.09
2023-12-08T21:46:13.762Z,25.15
2023-12-08T21:48:46.034Z,25.12
2023-12-08T21:51:16.256Z,25.04
2023-12-08T21:53:46.310Z,24.89
2023-12-08T21:56:28.314Z,24.77
2023-12-08T21:59:01.460Z,24.71
2023-12-08T22:01:32.123Z,24.65
2023-12-08T22:04:02.664Z,24.54
2023-12-08T22:06:35.245Z,24.44
2023-12-08T22:09:07.330Z,24.37
2023-12-08T22:11:38.974Z,24.13
2023-12-08T22:14:09.813Z,24.05
2023-12-08T22:16:39.616Z,24.00
2023-12-08T22:19:09.492Z,23.95
2023-12-08T22:21:39.465Z,23.92
2023-12-08T22:24:09.613Z,23.86
2023-12-08T22:26:39.428Z,23.78
2023-12-08T22:29:09.483Z,23.62
2023-12-08T22:31:40.210Z,23.54
2023-12-08T22:34:10.807Z,23.45
2023-12-08T22:36:40.992Z,23.45
2023-12-08T22:39:11.326Z,23.31
2023-12-08T22:41:41.158Z,23.10
2023-12-08T22:44:11.591Z,23.03
2023-12-08T22:46:42.393Z,22.97
2023-12-08T22:49:12.560Z,22.89
2023-12-08T22:51:53.997Z,22.76
2023-12-08T22:54:28.769Z,22.72
2023-12-08T22:56:58.741Z,22.66
2023-12-08T22:59:29.757Z,22.45
2023-12-08T23:01:59.816Z,22.41
2023-12-08T23:04:32.145Z,22.33
2023-12-08T23:07:02.514Z,22.15
2023-12-08T23:09:32.664Z,22.15
2023-12-08T23:12:02.802Z,22.14
2023-12-08T23:14:32.685Z,22.16
2023-12-08T23:17:02.883Z,22.21
2023-12-08T23:19:32.886Z,22.18
2023-12-08T23:22:03.016Z,22.09
2023-12-08T23:24:33.402Z,22.25
2023-12-08T23:27:03.795Z,22.32
2023-12-08T23:29:33.632Z,22.33
2023-12-08T23:32:03.498Z,22.26
2023-12-08T23:34:33.541Z,22.24
2023-12-08T23:37:04.059Z,22.21
2023-12-08T23:39:34.247Z,22.14
2023-12-08T23:42:07.016Z,22.09
2023-12-08T23:44:37.065Z,22.04
2023-12-08T23:47:07.458Z,21.95
2023-12-08T23:49:37.364Z,21.91
2023-12-08T23:52:07.693Z,21.68
2023-12-08T23:54:38.127Z,21.44
2023-12-08T23:57:09.413Z,21.42
2023-12-08T23:59:40.138Z,21.30
